Time;durP1;ratioP1;P1;durP2;ratioP2;P2;SDS_P1;SDS_P2;PMS_P1;PMS_P2;Temp;Humidity;BMP_temperature;BMP_pressure;BME280_temperature;BME280_humidity;BME280_pressure;Samples;Min_cycle;Max_cycle;Signal;HPM_P1;HPM_P2
2021/04/19 00:01:32;;;;;;;93.00;52.63;;;;;;;9.28;75.20;99504.94;5051014;28;20041;-68
2021/04/19 00:03:58;;;;;;;92.03;53.17;;;;;;;9.36;75.23;99518.09;5046578;28;20107;-68
2021/04/19 00:06:24;;;;;;;92.07;52.67;;;;;;;9.50;74.97;99508.75;5050939;28;20061;-67
2021/04/19 00:08:49;;;;;;;95.85;53.17;;;;;;;9.49;74.87;99507.13;5050783;28;20017;-65
2021/04/19 00:11:15;;;;;;;102.93;55.53;;;;;;;9.30;74.89;99494.31;5051040;28;20097;-66
2021/04/19 00:13:42;;;;;;;94.03;53.70;;;;;;;9.19;75.79;99492.97;5048540;28;20395;-66
2021/04/19 00:16:08;;;;;;;100.97;51.35;;;;;;;9.07;76.58;99480.47;5042340;28;20072;-68
2021/04/19 00:18:33;;;;;;;98.25;53.42;;;;;;;9.11;76.38;99486.19;5050536;28;20067;-69
2021/04/19 00:20:59;;;;;;;96.57;53.10;;;;;;;9.09;76.63;99483.75;5050475;28;20029;-68
2021/04/19 00:23:24;;;;;;;106.22;55.92;;;;;;;8.91;76.60;99480.09;5046337;28;20058;-65
2021/04/19 00:25:50;;;;;;;101.22;55.30;;;;;;;9.15;76.34;99486.38;5032902;28;20025;-68
2021/04/19 00:28:15;;;;;;;107.25;54.42;;;;;;;9.16;76.06;99480.47;5050458;28;20029;-66
2021/04/19 00:30:41;;;;;;;99.07;54.42;;;;;;;9.28;75.66;99465.88;5049083;28;20020;-69
2021/04/19 00:33:07;;;;;;;97.13;53.42;;;;;;;9.38;75.26;99464.75;5048491;28;20553;-66
2021/04/19 00:35:32;;;;;;;96.35;53.45;;;;;;;9.15;75.54;99464.06;5050557;28;20029;-69
2021/04/19 00:37:57;;;;;;;102.88;55.10;;;;;;;9.47;75.67;99473.13;5050352;28;20028;-65
2021/04/19 00:40:23;;;;;;;101.40;54.42;;;;;;;9.59;74.82;99476.09;5028847;28;20311;-69
2021/04/19 00:42:50;;;;;;;102.28;55.55;;;;;;;9.66;74.43;99481.19;5046465;28;20031;-66
2021/04/19 00:45:17;;;;;;;100.90;53.95;;;;;;;9.78;74.21;99474.94;5050662;28;20032;-66
2021/04/19 00:47:46;;;;;;;96.65;54.95;;;;;;;9.87;73.32;99472.16;5032680;28;20060;-68
2021/04/19 00:50:16;;;;;;;91.18;50.65;;;;;;;9.92;73.06;99483.13;5043227;28;20036;-67
2021/04/19 00:52:42;;;;;;;103.13;56.08;;;;;;;10.01;73.38;99483.94;5050151;28;20477;-66
2021/04/19 00:55:13;;;;;;;95.72;53.90;;;;;;;10.12;73.62;99481.63;5050530;28;20034;-66
2021/04/19 00:57:39;;;;;;;109.32;57.47;;;;;;;10.17;73.61;99483.41;5049286;28;20458;-68
2021/04/19 01:00:11;;;;;;;92.45;52.75;;;;;;;10.21;73.61;99482.44;5048166;28;20476;-65
2021/04/19 01:02:40;;;;;;;103.95;55.67;;;;;;;10.28;73.58;99486.72;5050321;28;20032;-65
2021/04/19 01:05:27;;;;;;;109.25;57.35;;;;;;;10.40;73.39;99475.66;5049414;28;20037;-68
2021/04/19 01:07:53;;;;;;;98.85;54.25;;;;;;;10.19;73.53;99467.97;5048233;28;20060;-65
2021/04/19 01:10:19;;;;;;;104.22;54.22;;;;;;;10.04;73.68;99468.50;5032209;28;20020;-68
2021/04/19 01:12:44;;;;;;;96.25;50.83;;;;;;;9.99;73.45;99463.91;5032075;28;20044;-68
2021/04/19 01:15:13;;;;;;;97.35;54.22;;;;;;;9.93;73.13;99460.47;5050303;28;20471;-68
2021/04/19 01:17:39;;;;;;;107.57;56.33;;;;;;;9.97;73.48;99467.03;5025988;28;20036;-67
2021/04/19 01:20:08;;;;;;;102.43;55.35;;;;;;;9.90;73.21;99458.34;5050184;28;20029;-68
2021/04/19 01:22:35;;;;;;;105.20;56.88;;;;;;;9.98;73.63;99463.06;5031456;28;20037;-69
2021/04/19 01:25:00;;;;;;;107.25;56.97;;;;;;;10.00;74.22;99470.31;5042539;28;20163;-66
2021/04/19 01:27:25;;;;;;;104.35;57.15;;;;;;;10.08;74.26;99461.09;5040375;28;20148;-66
2021/04/19 01:29:51;;;;;;;105.95;55.97;;;;;;;9.97;75.16;99455.84;5032277;28;20086;-68
2021/04/19 01:32:16;;;;;;;99.97;53.40;;;;;;;9.92;75.13;99458.81;5046901;28;20036;-67
2021/04/19 01:34:42;;;;;;;113.30;58.30;;;;;;;10.03;74.63;99459.28;5038405;28;20475;-66
2021/04/19 01:37:07;;;;;;;100.93;55.13;;;;;;;10.03;74.01;99456.50;5040198;28;20517;-68
2021/04/19 01:39:32;;;;;;;102.55;56.95;;;;;;;9.90;74.78;99461.13;5045371;28;20026;-66
2021/04/19 01:41:58;;;;;;;118.32;62.88;;;;;;;9.90;75.37;99460.28;5047582;28;20110;-65
2021/04/19 01:44:23;;;;;;;107.70;57.20;;;;;;;9.85;75.06;99463.28;5016246;28;20396;-65
2021/04/19 01:46:49;;;;;;;103.70;56.53;;;;;;;9.84;75.01;99465.22;5035482;28;20021;-66
2021/04/19 01:49:17;;;;;;;111.57;55.22;;;;;;;9.88;74.91;99466.19;5051107;28;20029;-66
2021/04/19 01:51:44;;;;;;;100.05;54.60;;;;;;;9.80;75.54;99473.44;5047010;28;20052;-68
2021/04/19 01:54:10;;;;;;;98.50;53.65;;;;;;;9.89;75.31;99469.84;5027210;28;20059;-65
2021/04/19 01:56:36;;;;;;;110.72;56.25;;;;;;;9.95;74.95;99466.53;5015715;28;20025;-65
2021/04/19 01:59:03;;;;;;;100.85;55.38;;;;;;;9.87;75.44;99464.56;5033653;28;20485;-66
2021/04/19 02:01:30;;;;;;;99.75;54.40;;;;;;;9.95;75.35;99466.53;5015188;28;20029;-65
2021/04/19 02:04:09;;;;;;;104.97;58.00;;;;;;;10.07;75.01;99470.63;5032609;28;20380;-66
2021/04/19 02:07:07;;;;;;;93.78;52.53;;;;;;;9.90;74.82;99463.94;5015679;28;20045;-65
2021/04/19 02:09:53;;;;;;;109.13;59.40;;;;;;;9.77;75.56;99462.94;5011923;28;20041;-66
2021/04/19 02:12:28;;;;;;;106.15;60.67;;;;;;;9.60;75.90;99463.75;5011787;28;20100;-65
2021/04/19 02:15:07;;;;;;;102.00;55.15;;;;;;;9.37;77.01;99461.13;5016829;28;20025;-69
2021/04/19 02:17:48;;;;;;;100.55;52.78;;;;;;;9.18;77.91;99457.84;5033807;28;20486;-67
2021/04/19 02:20:13;;;;;;;106.20;54.30;;;;;;;9.02;78.46;99449.91;5033036;28;20029;-65
2021/04/19 02:22:44;;;;;;;103.03;57.88;;;;;;;9.10;78.26;99467.81;5027201;28;20187;-68
2021/04/19 02:25:36;;;;;;;94.65;52.00;;;;;;;9.24;78.19;99450.94;5051134;28;20030;-68
2021/04/19 02:28:09;;;;;;;96.38;53.22;;;;;;;9.31;78.53;99451.28;5049749;28;20132;-65
2021/04/19 02:30:38;;;;;;;96.75;54.17;;;;;;;9.27;78.12;99444.69;5034320;28;20509;-65
2021/04/19 02:33:07;;;;;;;107.35;54.53;;;;;;;9.24;78.25;99445.34;5034724;28;20525;-65
2021/04/19 02:35:34;;;;;;;98.77;52.63;;;;;;;9.22;78.02;99448.47;5052543;28;20033;-66
2021/04/19 02:38:02;;;;;;;93.43;52.85;;;;;;;9.33;77.60;99436.97;5051580;28;20520;-65
2021/04/19 02:40:32;;;;;;;96.35;53.50;;;;;;;9.40;77.48;99440.13;5053041;28;20040;-65
2021/04/19 02:42:59;;;;;;;90.38;50.92;;;;;;;9.47;77.05;99443.25;5048325;28;20291;-67
2021/04/19 02:45:25;;;;;;;99.93;54.40;;;;;;;9.47;77.39;99439.63;5031411;28;20075;-65
2021/04/19 02:47:51;;;;;;;91.97;50.60;;;;;;;9.62;77.31;99447.50;5047586;28;20421;-65
2021/04/19 02:50:22;;;;;;;100.18;54.25;;;;;;;9.52;76.70;99450.63;5052736;28;20025;-65
2021/04/19 02:52:48;;;;;;;97.47;51.58;;;;;;;9.48;77.92;99444.06;5052351;28;20037;-66
2021/04/19 02:55:16;;;;;;;107.80;56.30;;;;;;;9.61;76.49;99447.84;5052577;28;20434;-69
2021/04/19 02:57:53;;;;;;;98.55;53.63;;;;;;;9.51;77.34;99451.78;5029902;28;20037;-65
2021/04/19 03:00:23;;;;;;;106.88;53.35;;;;;;;9.55;77.50;99450.78;5050076;28;20474;-67
2021/04/19 03:02:50;;;;;;;122.25;65.35;;;;;;;9.54;77.49;99451.13;5052158;28;20035;-64
2021/04/19 03:05:20;;;;;;;140.20;82.40;;;;;;;9.58;77.39;99454.06;5051182;28;20033;-68
2021/04/19 03:08:01;;;;;;;141.73;82.65;;;;;;;9.64;76.77;99444.38;5052080;28;20033;-65
2021/04/19 03:10:31;;;;;;;100.20;58.47;;;;;;;9.61;77.13;99440.28;5052541;28;20087;-64
2021/04/19 03:12:58;;;;;;;115.88;63.38;;;;;;;9.65;76.81;99451.63;5051932;28;20033;-68
2021/04/19 03:15:28;;;;;;;131.93;72.30;;;;;;;9.73;76.99;99449.97;5047500;28;20112;-67
2021/04/19 03:17:55;;;;;;;;;;;;;;;9.62;76.72;99441.91;5052583;28;20043;-65
2021/04/19 03:20:25;;;;;;;198.05;112.88;;;;;;;9.65;77.07;99443.22;5052148;28;19923;-67
2021/04/19 03:22:53;;;;;;;217.60;128.20;;;;;;;9.63;76.88;99443.56;5049345;28;20052;-68
2021/04/19 03:25:19;;;;;;;188.45;105.30;;;;;;;9.61;76.73;99445.84;5036327;28;20025;-65
2021/04/19 03:27:48;;;;;;;171.68;95.80;;;;;;;9.59;77.47;99437.00;5040943;28;20037;-67
2021/04/19 03:30:15;;;;;;;138.00;77.18;;;;;;;9.56;77.61;99443.25;5020591;28;20517;-68
2021/04/19 03:32:50;;;;;;;112.63;64.18;;;;;;;9.44;77.79;99437.50;5034932;28;20029;-68
2021/04/19 03:35:22;;;;;;;108.45;55.33;;;;;;;9.52;77.65;99431.06;5031273;28;20037;-65
2021/04/19 03:37:49;;;;;;;100.63;54.45;;;;;;;9.47;77.90;99431.25;5037354;28;20021;-68
2021/04/19 03:40:25;;;;;;;115.18;65.03;;;;;;;9.40;77.95;99435.34;5035688;28;20057;-65
2021/04/19 03:42:56;;;;;;;112.85;63.15;;;;;;;9.37;78.74;99436.00;5022567;28;20072;-65
2021/04/19 03:45:24;;;;;;;107.75;57.60;;;;;;;9.53;78.29;99433.53;5050626;28;20037;-65
2021/04/19 03:47:52;;;;;;;99.65;55.35;;;;;;;9.60;77.98;99435.84;5048874;28;20152;-65
2021/04/19 03:50:22;;;;;;;98.45;53.72;;;;;;;9.72;77.45;99440.78;5045947;28;20032;-68
2021/04/19 03:52:50;;;;;;;104.05;57.90;;;;;;;9.79;77.08;99437.47;5031242;28;20564;-68
2021/04/19 03:55:17;;;;;;;100.50;54.65;;;;;;;9.83;76.95;99441.25;5031717;28;20147;-65
2021/04/19 03:57:46;;;;;;;103.72;60.15;;;;;;;9.87;76.80;99438.63;5031426;28;20408;-67
2021/04/19 04:00:23;;;;;;;119.45;63.95;;;;;;;9.88;76.23;99441.06;5027643;28;20029;-68
2021/04/19 04:02:52;;;;;;;112.68;64.15;;;;;;;9.80;76.55;99436.31;5039748;28;20116;-65
2021/04/19 04:05:19;;;;;;;107.05;60.88;;;;;;;9.62;76.82;99429.94;5041502;28;20033;-65
2021/04/19 04:07:47;;;;;;;103.50;60.05;;;;;;;9.56;76.56;99426.50;5038999;28;20512;-67
2021/04/19 04:10:13;;;;;;;107.18;58.40;;;;;;;9.50;77.40;99422.22;5017287;28;20025;-66
2021/04/19 04:12:38;;;;;;;100.97;55.70;;;;;;;9.61;76.82;99415.13;5033104;28;20095;-67
2021/04/19 04:15:05;;;;;;;102.53;55.15;;;;;;;9.62;76.48;99413.19;5014261;28;20034;-65
2021/04/19 04:17:31;;;;;;;98.72;53.97;;;;;;;9.85;76.46;99419.38;5031930;28;20031;-65
2021/04/19 04:19:57;;;;;;;95.38;54.05;;;;;;;10.02;75.89;99412.13;5029347;28;20029;-65
2021/04/19 04:22:23;;;;;;;101.25;55.95;;;;;;;9.95;75.73;99407.84;5035119;28;20094;-65
2021/04/19 04:24:49;;;;;;;100.40;57.22;;;;;;;9.88;75.74;99406.72;5032962;28;20024;-68
2021/04/19 04:27:14;;;;;;;99.30;54.17;;;;;;;9.91;75.85;99404.09;5048263;28;20127;-68
2021/04/19 04:29:40;;;;;;;92.93;52.92;;;;;;;9.92;75.55;99407.69;5050828;28;20116;-67
2021/04/19 04:32:06;;;;;;;96.97;53.92;;;;;;;9.92;75.96;99407.69;5032596;28;20033;-67
2021/04/19 04:34:32;;;;;;;95.30;52.58;;;;;;;9.91;75.96;99409.69;5032313;28;20025;-68
2021/04/19 04:36:58;;;;;;;88.75;50.85;;;;;;;9.92;75.59;99408.53;5049677;28;20037;-68
2021/04/19 04:39:24;;;;;;;90.60;51.53;;;;;;;9.91;75.87;99418.06;5050368;28;20117;-68
2021/04/19 04:41:49;;;;;;;101.38;53.58;;;;;;;9.91;75.76;99418.06;5050480;28;20571;-68
2021/04/19 04:44:27;;;;;;;92.22;51.72;;;;;;;9.87;75.74;99421.84;5050314;28;20099;-68
2021/04/19 04:47:18;;;;;;;91.18;52.40;;;;;;;9.98;75.88;99418.38;5031478;28;20073;-68
2021/04/19 04:50:01;;;;;;;89.45;52.30;;;;;;;10.07;75.74;99417.53;5050395;28;20032;-66
2021/04/19 04:52:30;;;;;;;86.32;50.00;;;;;;;9.91;75.61;99420.88;5050041;28;20484;-65
2021/04/19 04:54:58;;;;;;;87.10;49.08;;;;;;;9.88;75.65;99421.50;5031478;28;20041;-66
2021/04/19 04:57:26;;;;;;;86.38;48.17;;;;;;;9.92;75.79;99425.28;5050139;28;20120;-68
2021/04/19 04:59:52;;;;;;;83.80;50.08;;;;;;;9.75;75.40;99409.38;5050430;28;20098;-66
2021/04/19 05:02:23;;;;;;;89.18;48.13;;;;;;;9.52;77.01;99408.72;5032217;28;20028;-66
2021/04/19 05:04:50;;;;;;;79.60;46.60;;;;;;;9.28;77.75;99404.47;5031081;28;20021;-69
2021/04/19 05:07:16;;;;;;;79.15;44.80;;;;;;;9.18;78.15;99397.25;5050069;28;20082;-68
2021/04/19 05:09:46;;;;;;;80.80;44.10;;;;;;;9.07;78.70;99404.28;5050114;28;20036;-68
2021/04/19 05:12:13;;;;;;;75.13;40.30;;;;;;;9.00;79.04;99396.41;5031435;28;20033;-68
2021/04/19 05:14:39;;;;;;;77.05;42.08;;;;;;;8.93;80.50;99390.47;5039906;28;20040;-66
2021/04/19 05:17:05;;;;;;;77.80;39.00;;;;;;;8.74;80.80;99385.19;5049888;28;20098;-68
2021/04/19 05:19:31;;;;;;;80.75;39.00;;;;;;;8.70;81.82;99382.25;5050349;28;20514;-68
2021/04/19 05:21:56;;;;;;;79.82;39.05;;;;;;;8.70;81.22;99385.84;5050691;28;20064;-68
2021/04/19 05:24:22;;;;;;;68.00;34.55;;;;;;;8.67;81.31;99378.16;5054109;28;20498;-65
2021/04/19 05:26:47;;;;;;;74.05;38.17;;;;;;;8.69;81.05;99380.63;5052913;28;20083;-63
2021/04/19 05:29:13;;;;;;;73.38;35.95;;;;;;;8.77;81.77;99379.00;5034232;28;20044;-66
2021/04/19 05:31:40;;;;;;;70.28;36.70;;;;;;;8.70;81.31;99382.25;5053114;28;20033;-67
2021/04/19 05:34:05;;;;;;;79.82;38.53;;;;;;;8.68;81.01;99388.16;5053395;28;20035;-65
2021/04/19 05:36:31;;;;;;;70.57;36.45;;;;;;;8.78;81.38;99389.81;5046415;28;20029;-70
2021/04/19 05:38:57;;;;;;;79.55;42.20;;;;;;;8.74;81.99;99383.25;5041703;28;20033;-67
2021/04/19 05:41:23;;;;;;;71.45;37.35;;;;;;;8.75;81.61;99378.47;5050055;28;20033;-67
2021/04/19 05:43:49;;;;;;;73.22;37.60;;;;;;;8.73;81.72;99376.03;5042478;28;20047;-68
2021/04/19 05:46:16;;;;;;;79.25;37.55;;;;;;;8.76;81.62;99380.16;5048389;28;20124;-70
2021/04/19 05:48:42;;;;;;;77.90;34.78;;;;;;;8.78;81.71;99375.88;5018211;28;20036;-69
2021/04/19 05:51:39;;;;;;;68.93;35.35;;;;;;;8.88;81.12;99385.06;5041366;28;20037;-70
2021/04/19 05:54:05;;;;;;;76.32;36.60;;;;;;;8.76;81.17;99391.31;5024902;28;20051;-66
2021/04/19 05:56:36;;;;;;;81.57;38.42;;;;;;;8.76;81.59;99389.31;5053184;28;20036;-65
2021/04/19 05:59:18;;;;;;;73.43;35.33;;;;;;;8.78;81.65;99387.03;5044252;28;20025;-68
2021/04/19 06:01:47;;;;;;;96.15;41.17;;;;;;;8.84;81.84;99387.69;5052857;28;20113;-67
2021/04/19 06:04:24;;;;;;;79.47;38.75;;;;;;;8.82;81.13;99388.03;5053768;28;20044;-67
2021/04/19 06:07:05;;;;;;;84.70;39.85;;;;;;;8.80;81.37;99381.94;5033487;28;20500;-66
2021/04/19 06:09:55;;;;;;;73.40;37.20;;;;;;;8.82;81.62;99371.28;5045151;28;20029;-67
2021/04/19 06:12:25;;;;;;;74.35;37.92;;;;;;;8.83;81.28;99372.09;5004879;28;20123;-69
2021/04/19 06:14:52;;;;;;;74.50;34.85;;;;;;;8.73;81.76;99370.44;5042908;28;20041;-68
2021/04/19 06:17:21;;;;;;;68.60;34.60;;;;;;;8.78;82.08;99366.69;5046634;28;20090;-69
2021/04/19 06:19:47;;;;;;;71.57;34.72;;;;;;;8.78;82.07;99367.50;5031928;28;20037;-68
2021/04/19 06:22:17;;;;;;;64.88;33.05;;;;;;;8.78;81.45;99369.47;5033082;28;20025;-68
2021/04/19 06:24:51;;;;;;;58.88;29.20;;;;;;;8.76;81.83;99367.00;5051491;28;20047;-68
2021/04/19 06:27:18;;;;;;;66.50;34.55;;;;;;;8.76;81.01;99358.63;5050516;28;20033;-68
2021/04/19 06:29:43;;;;;;;66.47;30.95;;;;;;;8.78;81.87;99355.53;5052861;28;20620;-67
2021/04/19 06:32:10;;;;;;;67.20;32.47;;;;;;;8.72;81.84;99357.66;5052271;28;20071;-69
2021/04/19 06:34:35;;;;;;;70.50;35.97;;;;;;;8.83;81.75;99353.41;5051827;28;20051;-67
2021/04/19 06:37:01;;;;;;;60.97;30.67;;;;;;;8.74;81.41;99349.78;5035076;28;20025;-68
2021/04/19 06:39:26;;;;;;;59.92;30.27;;;;;;;8.89;81.46;99347.66;5052674;28;20033;-66
2021/04/19 06:41:51;;;;;;;61.83;31.30;;;;;;;8.74;80.98;99352.56;5052607;28;20044;-69
2021/04/19 06:44:17;;;;;;;49.90;27.67;;;;;;;8.88;81.22;99354.41;5033601;28;20044;-68
2021/04/19 06:46:44;;;;;;;56.42;28.13;;;;;;;8.73;81.29;99359.31;5052569;28;20025;-65
2021/04/19 06:49:12;;;;;;;60.70;29.02;;;;;;;8.76;81.50;99357.84;5052446;28;20406;-65
2021/04/19 06:51:39;;;;;;;53.17;27.98;;;;;;;8.76;81.42;99353.06;5021118;28;20491;-67
2021/04/19 06:54:05;;;;;;;56.72;30.52;;;;;;;8.77;81.51;99351.91;5045904;28;20048;-66
2021/04/19 06:56:35;;;;;;;50.30;29.60;;;;;;;8.79;80.98;99334.88;5050873;28;20025;-69
2021/04/19 06:59:01;;;;;;;49.30;29.10;;;;;;;8.74;81.37;99341.41;5052141;28;20032;-68
2021/04/19 07:01:29;;;;;;;49.13;27.20;;;;;;;8.77;81.09;99332.41;5051307;28;20034;-68
2021/04/19 07:03:58;;;;;;;49.13;26.88;;;;;;;8.72;81.31;99349.28;5049812;28;20098;-67
2021/04/19 07:06:27;;;;;;;48.38;28.30;;;;;;;8.81;80.73;99333.41;5052172;28;20021;-66
2021/04/19 07:09:02;;;;;;;47.38;27.45;;;;;;;8.78;80.71;99344.38;5052145;28;20494;-65
2021/04/19 07:11:30;;;;;;;45.45;27.65;;;;;;;8.82;81.28;99346.19;5032681;28;20029;-66
2021/04/19 07:13:59;;;;;;;48.50;27.92;;;;;;;8.81;81.37;99343.72;5051918;28;20028;-66
2021/04/19 07:16:25;;;;;;;58.95;31.13;;;;;;;8.91;80.65;99350.94;5052052;28;20200;-66
2021/04/19 07:18:50;;;;;;;51.85;30.05;;;;;;;8.98;80.77;99352.09;5051689;28;20047;-67
2021/04/19 07:21:16;;;;;;;50.42;31.10;;;;;;;8.81;81.02;99349.31;5046052;28;20451;-68
2021/04/19 07:23:42;;;;;;;56.35;31.05;;;;;;;8.83;81.38;99347.00;5033653;28;20056;-69
2021/04/19 07:26:08;;;;;;;52.22;31.50;;;;;;;8.77;81.02;99342.75;5039340;28;20032;-70
2021/04/19 07:28:37;;;;;;;61.85;34.88;;;;;;;8.84;81.26;99338.31;5050530;28;20398;-69
2021/04/19 07:31:09;;;;;;;59.08;32.72;;;;;;;8.88;81.58;99340.44;5051131;28;20037;-67
2021/04/19 07:33:35;;;;;;;58.72;32.40;;;;;;;8.92;81.72;99342.25;5033394;28;20025;-66
2021/04/19 07:36:23;;;;;;;57.45;33.28;;;;;;;8.88;81.65;99332.91;5051605;28;20024;-66
2021/04/19 07:38:50;;;;;;;52.03;30.13;;;;;;;8.81;81.49;99332.56;5050231;28;20025;-66
2021/04/19 07:41:16;;;;;;;46.67;28.83;;;;;;;8.74;81.03;99338.63;5051362;28;20028;-65
2021/04/19 07:43:44;;;;;;;47.97;29.27;;;;;;;8.79;81.15;99346.81;5050440;28;20146;-65
2021/04/19 07:46:18;;;;;;;47.53;28.35;;;;;;;8.75;81.12;99336.66;5051319;28;20517;-66
2021/04/19 07:48:51;;;;;;;46.63;28.25;;;;;;;8.65;81.96;99335.00;5046532;28;20041;-67
2021/04/19 07:51:29;;;;;;;48.65;30.02;;;;;;;8.71;81.49;99337.31;5048568;28;21213;-66
2021/04/19 07:54:13;;;;;;;41.38;27.48;;;;;;;8.70;81.57;99332.06;5047820;28;20457;-65
2021/04/19 07:56:39;;;;;;;47.17;27.35;;;;;;;8.68;81.40;99334.34;5042059;28;20057;-67
2021/04/19 07:59:25;;;;;;;44.65;26.42;;;;;;;8.71;82.08;99336.50;5048468;28;20484;-65
2021/04/19 08:02:02;;;;;;;44.47;27.83;;;;;;;8.79;81.80;99332.06;5050961;28;20092;-66
2021/04/19 08:04:29;;;;;;;56.40;28.73;;;;;;;8.77;81.50;99326.81;5029450;28;20108;-66
2021/04/19 08:06:55;;;;;;;47.70;28.85;;;;;;;8.85;81.56;99311.22;5028473;28;20063;-67
2021/04/19 08:09:25;;;;;;;50.17;28.83;;;;;;;8.84;81.90;99318.78;5048391;28;20510;-68
2021/04/19 08:11:57;;;;;;;;;;;;;;;8.96;81.77;99295.00;5049578;28;20037;-67
2021/04/19 08:14:32;;;;;;;52.17;27.85;;;;;;;8.97;81.64;99280.72;5029651;28;19923;-66
2021/04/19 08:17:11;;;;;;;92.15;30.40;;;;;;;9.06;81.15;99266.78;5046052;28;20034;-65
2021/04/19 08:19:39;;;;;;;63.08;27.58;;;;;;;9.44;82.59;99262.41;5036857;28;20399;-66
2021/04/19 08:22:20;;;;;;;45.95;25.05;;;;;;;9.58;82.10;99264.19;5031387;28;20033;-67
2021/04/19 08:24:47;;;;;;;39.75;24.40;;;;;;;9.54;81.50;99267.66;5039460;28;20048;-68
2021/04/19 08:27:23;;;;;;;39.25;23.52;;;;;;;9.58;81.66;99259.44;5031497;28;20503;-67
2021/04/19 08:29:49;;;;;;;35.35;22.33;;;;;;;9.48;80.71;99266.22;5050977;28;20017;-68
2021/04/19 08:32:22;;;;;;;34.58;21.60;;;;;;;9.46;81.00;99262.09;5048462;28;20038;-68
2021/04/19 08:34:49;;;;;;;36.30;21.05;;;;;;;9.45;80.75;99266.03;5050660;28;20024;-69
2021/04/19 08:37:18;;;;;;;29.15;21.48;;;;;;;9.43;79.73;99252.41;5032518;28;20415;-68
2021/04/19 08:39:45;;;;;;;30.20;21.77;;;;;;;9.35;80.55;99236.50;5040604;28;20028;-70
2021/04/19 08:42:12;;;;;;;36.95;22.17;;;;;;;9.28;79.90;99245.38;5048277;28;20040;-72
2021/04/19 08:44:40;;;;;;;32.35;21.85;;;;;;;9.31;80.01;99232.75;5050135;28;20029;-72
2021/04/19 08:47:07;;;;;;;34.80;23.60;;;;;;;9.30;79.47;99240.31;5044342;28;20086;-71
2021/04/19 08:49:33;;;;;;;36.35;24.45;;;;;;;9.41;79.57;99244.38;5040518;28;20029;-71
2021/04/19 08:52:00;;;;;;;43.53;24.77;;;;;;;9.41;79.82;99238.81;5044981;28;20036;-72
2021/04/19 08:54:26;;;;;;;38.40;24.73;;;;;;;9.46;79.71;99242.56;5048107;28;20490;-72
2021/04/19 08:56:52;;;;;;;35.20;24.20;;;;;;;9.56;79.29;99231.03;5048460;28;20096;-72
2021/04/19 08:59:21;;;;;;;32.95;23.25;;;;;;;9.49;77.85;99217.59;5046723;28;22703;-72
2021/04/19 09:01:47;;;;;;;38.08;23.52;;;;;;;9.52;78.38;99216.09;5045665;28;20036;-71
2021/04/19 09:04:12;;;;;;;36.38;25.73;;;;;;;9.50;78.84;99222.00;5030137;28;20057;-71
2021/04/19 09:06:46;;;;;;;35.30;24.98;;;;;;;9.50;78.65;99213.66;5048206;28;20166;-70
2021/04/19 09:09:31;;;;;;;37.67;25.20;;;;;;;9.60;78.62;99206.88;5041910;28;20478;-70
2021/04/19 10:03:19;;;;;;;46.25;29.25;;;;;;;9.46;79.71;99165.19;5047894;28;20051;-74
2021/04/19 10:05:45;;;;;;;44.08;27.27;;;;;;;9.44;78.93;99163.91;5048656;28;20437;-71
2021/04/19 10:08:13;;;;;;;49.53;29.88;;;;;;;9.52;80.12;99168.63;5051844;28;20064;-74
2021/04/19 10:10:40;;;;;;;39.90;27.35;;;;;;;9.46;79.30;99153.22;5051208;28;20028;-76
2021/04/19 10:13:06;;;;;;;43.90;29.85;;;;;;;9.52;79.81;99160.25;5050890;28;20061;-71
2021/04/19 10:15:31;;;;;;;49.70;31.55;;;;;;;9.53;79.43;99162.72;5051079;28;20033;-72
2021/04/19 10:17:59;;;;;;;47.25;30.95;;;;;;;9.55;79.35;99156.81;5050901;28;20099;-70
2021/04/19 10:20:29;;;;;;;41.17;28.23;;;;;;;9.61;79.92;99149.06;5031983;28;20033;-71
2021/04/19 10:23:12;;;;;;;37.78;26.40;;;;;;;9.49;79.38;99142.22;5045359;28;20422;-70
2021/04/19 10:25:46;;;;;;;36.50;24.33;;;;;;;9.44;79.55;99144.38;5043299;28;20044;-70
2021/04/19 10:28:24;;;;;;;41.85;25.50;;;;;;;9.44;80.43;99147.16;5052436;28;20035;-71
2021/04/19 10:30:49;;;;;;;46.55;28.13;;;;;;;9.47;80.83;99152.06;5050633;28;20025;-70
2021/04/19 10:33:25;;;;;;;43.05;25.20;;;;;;;9.50;80.27;99146.63;5041171;28;20036;-71
2021/04/19 10:35:50;;;;;;;54.83;31.10;;;;;;;9.48;80.38;99139.75;5034648;28;20033;-70
2021/04/19 10:38:16;;;;;;;44.05;28.00;;;;;;;9.41;80.88;99129.94;5052466;28;20029;-70
2021/04/19 10:40:41;;;;;;;48.50;28.15;;;;;;;9.52;81.88;99121.16;5034582;28;20041;-70
2021/04/19 10:43:12;;;;;;;43.50;27.88;;;;;;;9.53;81.34;99117.19;5052095;28;20487;-70
2021/04/19 10:45:42;;;;;;;47.30;31.23;;;;;;;9.61;82.18;99118.34;5052515;28;20548;-70
2021/04/19 10:48:25;;;;;;;44.97;28.05;;;;;;;9.52;81.66;99127.56;5052018;28;20036;-70
2021/04/19 10:50:55;;;;;;;46.00;27.25;;;;;;;9.39;82.08;99114.66;5052975;28;20078;-69
2021/04/19 10:53:38;;;;;;;43.33;27.13;;;;;;;9.49;81.32;99110.66;5047519;28;20036;-70
2021/04/19 10:56:05;;;;;;;50.88;29.77;;;;;;;9.48;81.74;99115.44;5024724;28;20041;-70
2021/04/19 10:58:35;;;;;;;51.17;31.02;;;;;;;9.59;82.42;99115.03;5033952;28;20035;-70
2021/04/19 11:01:02;;;;;;;48.20;31.55;;;;;;;9.57;81.92;99118.19;5052192;28;20057;-70
2021/04/19 11:03:37;;;;;;;55.25;32.35;;;;;;;9.66;81.75;99124.53;5051267;28;20053;-70
2021/04/19 11:06:07;;;;;;;61.42;33.83;;;;;;;9.78;81.97;99121.00;5052026;28;20039;-70
2021/04/19 11:08:55;;;;;;;61.50;33.42;;;;;;;9.79;82.14;99119.06;5051509;28;20405;-70
2021/04/19 11:11:28;;;;;;;43.35;27.08;;;;;;;9.86;82.49;99118.50;5051673;28;20037;-70
2021/04/19 11:14:25;;;;;;;42.53;25.27;;;;;;;9.82;81.61;99126.75;5033516;28;20402;-70
2021/04/19 11:17:02;;;;;;;40.08;24.85;;;;;;;9.96;82.27;99120.91;5051031;28;20052;-70
2021/04/19 11:19:40;;;;;;;62.55;33.75;;;;;;;9.97;80.84;99112.16;5045381;28;20487;-70
2021/04/19 11:22:22;;;;;;;68.95;38.80;;;;;;;9.95;81.10;99122.88;5051474;28;20048;-70
2021/04/19 11:24:48;;;;;;;50.40;29.10;;;;;;;10.20;79.80;99123.00;5033477;28;20158;-70
2021/04/19 11:27:14;;;;;;;63.53;35.15;;;;;;;10.23;79.55;99116.75;5031511;28;20118;-70
2021/04/19 11:29:42;;;;;;;36.47;25.52;;;;;;;10.29;79.88;99119.34;5051454;28;20021;-71
2021/04/19 11:32:26;;;;;;;38.35;25.33;;;;;;;10.32;79.76;99125.06;5048095;28;20553;-70
2021/04/19 11:34:53;;;;;;;42.75;25.38;;;;;;;10.30;79.63;99120.97;5031541;28;20029;-70
2021/04/19 11:37:36;;;;;;;38.55;24.67;;;;;;;10.39;79.21;99127.31;5033046;28;20060;-70
2021/04/19 11:40:23;;;;;;;44.35;29.58;;;;;;;10.55;78.33;99121.13;5040401;28;20025;-70
2021/04/19 11:42:49;;;;;;;50.28;32.38;;;;;;;10.87;77.95;99138.25;5032846;28;20035;-70
2021/04/19 11:45:20;;;;;;;51.33;32.28;;;;;;;10.93;77.53;99136.84;5033253;28;20032;-70
2021/04/19 11:47:46;;;;;;;44.20;29.40;;;;;;;11.00;77.32;99127.91;5033359;28;20055;-70
2021/04/19 11:50:12;;;;;;;55.83;32.08;;;;;;;10.84;77.53;99116.53;5051492;28;20060;-70
2021/04/19 11:52:47;;;;;;;52.38;32.10;;;;;;;10.64;77.77;99105.06;5051007;28;20025;-69
2021/04/19 11:55:13;;;;;;;43.45;26.02;;;;;;;10.49;78.69;99098.94;5032935;28;20033;-69
2021/04/19 11:57:40;;;;;;;39.97;24.45;;;;;;;10.13;79.23;99093.97;5051122;28;20036;-68
2021/04/19 12:00:10;;;;;;;36.47;24.60;;;;;;;10.23;80.47;99099.97;5033028;28;20037;-68
2021/04/19 12:02:36;;;;;;;32.60;22.70;;;;;;;10.17;79.91;99094.94;5050485;28;20099;-68
2021/04/19 12:05:04;;;;;;;39.50;25.95;;;;;;;10.11;79.92;99089.56;5032871;28;20463;-68
2021/04/19 12:07:30;;;;;;;41.15;23.73;;;;;;;10.02;79.84;99091.59;5050521;28;20067;-68
2021/04/19 12:09:55;;;;;;;43.55;26.75;;;;;;;10.03;79.47;99086.84;5050973;28;20028;-68
2021/04/19 12:12:20;;;;;;;45.45;28.58;;;;;;;10.20;79.04;99092.28;5032624;28;20029;-68
2021/04/19 12:14:46;;;;;;;41.83;27.67;;;;;;;10.25;79.70;99088.47;5045282;28;20033;-68
2021/04/19 12:17:11;;;;;;;44.42;27.98;;;;;;;10.25;78.97;99083.66;5049719;28;20037;-68
2021/04/19 12:19:37;;;;;;;34.22;25.92;;;;;;;10.24;79.80;99084.03;5049441;28;20028;-68
2021/04/19 12:22:07;;;;;;;42.58;26.40;;;;;;;10.33;79.97;99075.56;5050590;28;20033;-69
2021/04/19 12:24:33;;;;;;;43.17;26.60;;;;;;;10.34;80.08;99077.19;5050844;28;20484;-69